Turner, Oregon
Current Conditions -  °F | °C
As of 12:56 AM on Friday 28 Nov 2014 (Local Time) from KSLE Reporting Station
Light Rain Light Rain  
Wind Chill: 53°   Ceiling: 4300
Heat Index: 53°   Visibility: 6mi
Dew Point: 50°   Wind: 16mph
Humidity: 89%   Direction: 190°S
Pressure: 29.79"   Gusts: NA
Location:  44.84°N, 122.95°W
Report Text: KSLE 280856Z AUTO 19014KT 6SM -RA BR FEW032 BKN043 OVC070 12/10 A2979 RMK AO2 RAB03 SLP088 P0004 60018 T01170100 58021
Loading
Personal Weather Stations






























Interactive Weather Map New forecast layout! Learn more

10-Day Weather Forecast

Advertisements
Track Severe Weather on mobile